CheckWX is a tool to help pilots better visualize weather data.  It is not intended as a substitute for an official pre-flight weather briefing.

04:22:08 UTC

KGJT METAR
Grand Junction Regional Airport
Grand Junction, Colorado, USA
Current

29 mins ago

KGJT 270353Z AUTO 17014KT 10SM CLR 17/02 A2978 RMK AO2 PK WND 15029/0304 SLP028 T01720017
Observed
May-27 @ 03:53 UTC
Wind
  • 170° at 14 KTS
Visibility
10 SM
Flight Rules
VFR
Cloud Levels
  • Clear skies
Temperature
17°C / 63°F
Dewpoint
C / 36°F
Humidity
37%
Altimeter
29.78" Hg
Pressure
1008.42 hPa
Previous

1 hour ago

KGJT 270253Z 15020G30KT 10SM CLR 18/02 A2975 RMK AO2 PK WND 15030/0244 SLP020 T01780017 53006
Observed
May-27 @ 02:53 UTC
Wind
  • 150° at 20 KTS
  • Gusting to 30 KTS
Visibility
10 SM
Flight Rules
VFR
Cloud Levels
  • Clear skies
Temperature
18°C / 64°F
Dewpoint
C / 36°F
Humidity
34%
Altimeter
29.75" Hg
Pressure
1007.42 hPa
Previous

2 hours ago

KGJT 270153Z 14015G21KT 10SM CLR 21/00 A2974 RMK AO2 PK WND 15034/0115 SLP014 T02060000
Observed
May-27 @ 01:53 UTC
Wind
  • 140° at 15 KTS
  • Gusting to 21 KTS
Visibility
10 SM
Flight Rules
VFR
Cloud Levels
  • Clear skies
Temperature
21°C / 70°F
Dewpoint
C / 32°F
Humidity
25%
Altimeter
29.74" Hg
Pressure
1007.12 hPa